createdAt,value
2017-12-28T00:01:36.942Z,48.87
2017-12-28T00:04:04.498Z,48.86
2017-12-28T00:06:32.085Z,48.84
2017-12-28T00:08:59.571Z,48.78
2017-12-28T00:11:27.118Z,48.66
2017-12-28T00:13:54.649Z,48.66
2017-12-28T00:16:22.142Z,48.53
2017-12-28T00:18:49.690Z,48.55
2017-12-28T00:21:17.266Z,48.47
2017-12-28T00:23:44.819Z,48.42
2017-12-28T00:26:12.296Z,48.36
2017-12-28T00:28:39.813Z,48.44
2017-12-28T00:31:07.367Z,48.28
2017-12-28T00:33:34.848Z,48.37
2017-12-28T00:36:02.393Z,48.25
2017-12-28T00:38:29.875Z,48.35
2017-12-28T00:40:57.353Z,48.26
2017-12-28T00:43:24.942Z,48.20
2017-12-28T00:45:52.492Z,48.13
2017-12-28T00:48:19.973Z,48.13
2017-12-28T00:50:47.485Z,48.04
2017-12-28T00:53:14.979Z,48.04
2017-12-28T00:55:42.542Z,47.99
2017-12-28T00:58:10.053Z,47.90
2017-12-28T01:00:37.537Z,47.84
2017-12-28T01:03:05.086Z,47.75
2017-12-28T01:05:32.611Z,47.70
2017-12-28T01:08:00.154Z,47.69
2017-12-28T01:10:27.633Z,47.58
2017-12-28T01:12:55.206Z,47.54
2017-12-28T01:15:22.754Z,47.48
2017-12-28T01:17:50.229Z,47.47
2017-12-28T01:20:17.820Z,47.50
2017-12-28T01:22:45.308Z,47.41
2017-12-28T01:25:12.890Z,47.41
2017-12-28T01:27:40.466Z,47.28
2017-12-28T01:30:07.945Z,47.25
2017-12-28T01:32:35.499Z,47.25
2017-12-28T01:35:03.045Z,47.20
2017-12-28T01:37:30.552Z,47.18
2017-12-28T01:39:58.114Z,47.12
2017-12-28T01:42:25.699Z,47.06
2017-12-28T01:44:53.262Z,46.98
2017-12-28T01:47:20.745Z,46.98
2017-12-28T01:49:48.310Z,46.96
2017-12-28T01:52:15.858Z,46.87
2017-12-28T01:54:43.438Z,46.82
2017-12-28T01:57:10.997Z,46.69
2017-12-28T01:59:38.477Z,46.74
2017-12-28T02:02:05.992Z,46.60
2017-12-28T02:04:33.538Z,46.65
2017-12-28T02:07:01.057Z,46.70
2017-12-28T02:09:28.645Z,46.56
2017-12-28T02:11:56.129Z,46.70
2017-12-28T02:14:23.608Z,46.57
2017-12-28T02:16:51.206Z,46.73
2017-12-28T02:19:18.695Z,46.46
2017-12-28T02:21:46.166Z,46.44
2017-12-28T02:24:13.674Z,46.40
2017-12-28T02:26:41.162Z,46.38
2017-12-28T02:29:08.708Z,46.38
2017-12-28T02:31:36.221Z,46.37
2017-12-28T02:34:03.771Z,46.24
2017-12-28T02:36:31.249Z,46.23
2017-12-28T02:38:58.765Z,46.15
2017-12-28T02:41:26.308Z,46.08
2017-12-28T02:43:54.733Z,46.05
2017-12-28T02:46:22.258Z,46.01
2017-12-28T02:48:49.803Z,46.00
2017-12-28T02:51:17.352Z,45.89
2017-12-28T02:53:44.872Z,45.89
2017-12-28T02:56:12.356Z,45.86
2017-12-28T02:58:39.833Z,45.88
2017-12-28T03:01:07.415Z,45.68
2017-12-28T03:03:34.962Z,45.92
2017-12-28T03:06:02.507Z,45.74
2017-12-28T03:08:30.018Z,45.65
2017-12-28T03:10:57.571Z,45.66
2017-12-28T03:13:25.116Z,45.70
2017-12-28T03:15:52.637Z,45.67
2017-12-28T03:18:20.114Z,45.62
2017-12-28T03:20:47.659Z,45.57
2017-12-28T03:23:15.240Z,45.56
2017-12-28T03:25:42.798Z,45.46
2017-12-28T03:28:10.305Z,45.53
2017-12-28T03:30:37.883Z,45.39
2017-12-28T03:33:05.371Z,45.39
2017-12-28T03:35:32.926Z,45.34
2017-12-28T03:38:00.446Z,45.23
2017-12-28T03:40:27.982Z,45.25
2017-12-28T03:42:55.526Z,45.21
2017-12-28T03:45:23.111Z,45.26
2017-12-28T03:47:50.677Z,45.12
2017-12-28T03:50:18.231Z,45.28
2017-12-28T03:52:45.802Z,45.05
2017-12-28T03:55:13.281Z,45.04
2017-12-28T03:57:40.830Z,45.02
2017-12-28T04:00:08.345Z,44.90
2017-12-28T04:02:35.822Z,44.96
2017-12-28T04:05:03.378Z,44.92
2017-12-28T04:07:30.888Z,44.85
2017-12-28T04:09:58.434Z,44.78
2017-12-28T04:12:25.987Z,44.79
2017-12-28T04:14:53.491Z,44.79
2017-12-28T04:17:21.044Z,44.78
2017-12-28T04:19:48.595Z,44.77
2017-12-28T04:22:16.119Z,44.71
2017-12-28T04:24:43.668Z,44.62
2017-12-28T04:27:11.146Z,44.57
2017-12-28T04:29:38.657Z,44.60
2017-12-28T04:32:06.198Z,44.59
2017-12-28T04:34:33.674Z,44.60
2017-12-28T04:37:01.246Z,44.58
2017-12-28T04:39:28.728Z,44.55
2017-12-28T04:41:56.283Z,44.51
2017-12-28T04:44:23.792Z,44.48
2017-12-28T04:46:51.334Z,44.53
2017-12-28T04:49:18.809Z,44.46
2017-12-28T04:51:46.321Z,44.47
2017-12-28T04:54:13.801Z,44.42
2017-12-28T04:56:41.281Z,44.30
2017-12-28T04:59:08.786Z,44.36
2017-12-28T05:01:36.269Z,44.27
2017-12-28T05:04:03.737Z,44.28
2017-12-28T05:06:31.254Z,44.22
2017-12-28T05:08:58.804Z,44.22
2017-12-28T05:11:26.281Z,44.10
2017-12-28T05:13:53.850Z,44.13
2017-12-28T05:16:21.330Z,44.15
2017-12-28T05:18:48.804Z,44.21
2017-12-28T05:21:16.387Z,44.09
2017-12-28T05:23:43.926Z,44.05
2017-12-28T05:26:11.401Z,44.02
2017-12-28T05:28:38.909Z,44.08
2017-12-28T05:31:06.459Z,43.98
2017-12-28T05:33:34.007Z,44.08
2017-12-28T05:36:01.513Z,44.07
2017-12-28T05:38:29.058Z,43.99
2017-12-28T05:40:56.594Z,43.98
2017-12-28T05:43:24.178Z,43.89
2017-12-28T05:45:51.649Z,43.91
2017-12-28T05:48:19.199Z,43.90
2017-12-28T05:50:46.711Z,43.76
2017-12-28T05:53:14.258Z,43.77
2017-12-28T05:55:41.743Z,43.75
2017-12-28T05:58:09.249Z,43.75
2017-12-28T06:00:36.724Z,43.80
2017-12-28T06:03:04.267Z,43.75
2017-12-28T06:05:31.834Z,43.75
2017-12-28T06:07:59.309Z,43.71
2017-12-28T06:10:26.785Z,43.69
2017-12-28T06:12:54.363Z,43.63
2017-12-28T06:15:21.902Z,43.64
2017-12-28T06:17:49.450Z,43.55
2017-12-28T06:20:16.957Z,43.84
2017-12-28T06:22:44.449Z,44.12
2017-12-28T06:25:11.921Z,44.75
2017-12-28T06:27:39.445Z,44.99
2017-12-28T06:30:07.007Z,44.87
2017-12-28T06:32:34.559Z,45.21
2017-12-28T06:35:02.084Z,45.13
2017-12-28T06:37:29.562Z,45.20
2017-12-28T06:39:57.038Z,46.13
2017-12-28T06:42:24.561Z,46.27
2017-12-28T06:44:52.045Z,46.17
2017-12-28T06:47:19.587Z,46.26
2017-12-28T06:49:47.161Z,46.12
2017-12-28T06:52:14.720Z,46.19
2017-12-28T06:54:42.233Z,46.09
2017-12-28T06:57:09.785Z,46.35
2017-12-28T06:59:37.265Z,46.86
2017-12-28T07:02:04.781Z,47.24
2017-12-28T07:04:32.269Z,47.39
2017-12-28T07:06:59.750Z,47.60
2017-12-28T07:09:27.336Z,47.65
2017-12-28T07:11:54.825Z,47.80
2017-12-28T07:14:22.332Z,47.98
2017-12-28T07:16:49.853Z,48.07
2017-12-28T07:19:17.414Z,47.81
2017-12-28T07:21:44.893Z,47.70
2017-12-28T07:24:12.483Z,47.67
2017-12-28T07:26:39.976Z,48.07
2017-12-28T07:29:07.473Z,48.36
2017-12-28T07:31:35.058Z,48.58
2017-12-28T07:34:02.620Z,49.26
2017-12-28T07:36:30.105Z,49.52
2017-12-28T07:38:57.634Z,49.52
2017-12-28T07:41:25.117Z,49.52
2017-12-28T07:43:52.597Z,49.25
2017-12-28T07:46:20.186Z,49.45
2017-12-28T07:48:47.685Z,49.99
2017-12-28T07:51:15.251Z,49.93
2017-12-28T07:53:42.907Z,50.08
2017-12-28T07:56:10.417Z,49.84
2017-12-28T07:58:37.905Z,49.67
2017-12-28T08:01:05.417Z,49.69
2017-12-28T08:03:32.978Z,50.04
2017-12-28T08:06:00.537Z,50.82
2017-12-28T08:08:28.127Z,50.78
2017-12-28T08:10:55.621Z,50.56
2017-12-28T08:13:23.177Z,50.47
2017-12-28T08:15:50.693Z,50.57
2017-12-28T08:18:18.181Z,50.28
2017-12-28T08:20:45.730Z,50.51
2017-12-28T08:23:13.266Z,50.00
2017-12-28T08:25:40.823Z,50.06
2017-12-28T08:28:08.388Z,49.84
2017-12-28T08:30:35.922Z,49.93
2017-12-28T08:33:03.500Z,49.98
2017-12-28T08:35:31.064Z,50.14
2017-12-28T08:37:58.656Z,49.90
2017-12-28T08:40:26.158Z,49.55
2017-12-28T08:42:53.643Z,49.04
2017-12-28T08:45:21.246Z,49.51
2017-12-28T08:47:48.745Z,49.27
2017-12-28T08:50:16.304Z,49.40
2017-12-28T08:52:43.820Z,49.38
2017-12-28T08:55:11.315Z,49.68
2017-12-28T08:57:38.821Z,49.12
2017-12-28T09:00:06.348Z,49.20
2017-12-28T09:02:33.837Z,48.86
2017-12-28T09:05:01.328Z,49.00
2017-12-28T09:07:28.931Z,48.58
2017-12-28T09:09:56.491Z,48.67
2017-12-28T09:12:24.051Z,48.56
2017-12-28T09:14:51.569Z,48.58
2017-12-28T09:17:19.059Z,48.73
2017-12-28T09:19:46.607Z,48.50
2017-12-28T09:22:14.186Z,48.43
2017-12-28T09:24:41.677Z,48.55
2017-12-28T09:27:09.157Z,48.45
2017-12-28T09:29:36.747Z,48.34
2017-12-28T09:32:04.303Z,48.23
2017-12-28T09:34:31.850Z,48.21
2017-12-28T09:36:59.430Z,48.10
2017-12-28T09:39:26.912Z,48.04
2017-12-28T09:41:54.394Z,47.94
2017-12-28T09:44:21.971Z,47.96
2017-12-28T09:46:49.453Z,47.86
2017-12-28T09:49:16.937Z,47.94
2017-12-28T09:51:44.460Z,47.88
2017-12-28T09:54:12.006Z,47.89
2017-12-28T09:56:39.559Z,47.89
2017-12-28T09:59:07.134Z,47.86
2017-12-28T10:01:34.695Z,47.85
2017-12-28T10:04:02.180Z,47.85
2017-12-28T10:06:29.770Z,47.80
2017-12-28T10:08:57.315Z,47.81
2017-12-28T10:11:24.890Z,47.77
2017-12-28T10:13:52.466Z,47.83
2017-12-28T10:16:19.945Z,47.78
2017-12-28T10:18:47.502Z,47.86
2017-12-28T10:21:15.021Z,47.79
2017-12-28T10:23:42.503Z,47.80
2017-12-28T10:26:09.983Z,47.77
2017-12-28T10:28:37.503Z,47.80
2017-12-28T10:31:05.051Z,47.77
2017-12-28T10:33:32.538Z,47.76
2017-12-28T10:36:00.050Z,47.73
2017-12-28T10:38:27.599Z,47.74
2017-12-28T10:40:55.163Z,47.76
2017-12-28T10:43:22.746Z,47.84
2017-12-28T10:45:50.226Z,47.89
2017-12-28T10:48:17.707Z,47.93
2017-12-28T10:50:45.300Z,47.93
2017-12-28T10:53:12.846Z,47.94
2017-12-28T10:55:40.394Z,47.90
2017-12-28T10:58:07.984Z,47.87
2017-12-28T11:00:35.543Z,47.80
2017-12-28T11:03:03.061Z,47.88
2017-12-28T11:05:30.576Z,47.94
2017-12-28T11:07:58.150Z,47.94
2017-12-28T11:10:25.628Z,47.98
2017-12-28T11:12:53.140Z,47.95
2017-12-28T11:15:20.629Z,47.94
2017-12-28T11:17:48.109Z,47.96
2017-12-28T11:20:15.625Z,47.99
2017-12-28T11:22:43.179Z,47.98
2017-12-28T11:25:10.726Z,47.92
2017-12-28T11:27:38.315Z,47.87
2017-12-28T11:30:05.862Z,47.78
2017-12-28T11:32:33.428Z,47.75
2017-12-28T11:35:00.945Z,47.68
2017-12-28T11:37:28.434Z,47.69
2017-12-28T11:39:55.982Z,47.70
2017-12-28T11:42:23.558Z,47.67
2017-12-28T11:44:51.037Z,47.65
2017-12-28T11:47:18.591Z,47.67
2017-12-28T11:49:56.065Z,47.69
2017-12-28T11:52:23.619Z,47.72
2017-12-28T11:55:06.020Z,47.73
2017-12-28T11:57:37.575Z,47.75
2017-12-28T12:00:10.616Z,47.76
2017-12-28T12:02:41.057Z,47.83
2017-12-28T12:05:08.553Z,47.85
2017-12-28T12:07:46.063Z,47.85
2017-12-28T12:10:13.565Z,47.83
2017-12-28T12:12:41.049Z,47.81
2017-12-28T12:15:08.634Z,47.80
2017-12-28T12:17:36.115Z,47.79
2017-12-28T12:20:03.678Z,47.79
2017-12-28T12:22:31.196Z,47.74
2017-12-28T12:24:58.747Z,47.75
2017-12-28T12:27:26.226Z,47.74
2017-12-28T12:29:53.807Z,47.74
2017-12-28T12:32:21.290Z,47.76
2017-12-28T12:34:48.770Z,47.76
2017-12-28T12:37:16.354Z,47.77
2017-12-28T12:39:43.907Z,47.79
2017-12-28T12:42:11.454Z,47.76
2017-12-28T12:44:39.034Z,47.74
2017-12-28T12:47:06.517Z,47.69
2017-12-28T12:49:34.071Z,47.64
2017-12-28T12:52:01.585Z,47.63
2017-12-28T12:54:29.131Z,47.60
2017-12-28T12:56:56.677Z,47.59
2017-12-28T12:59:24.250Z,47.59
2017-12-28T13:01:51.733Z,47.68
2017-12-28T13:04:19.217Z,47.73
2017-12-28T13:06:46.819Z,47.76
2017-12-28T13:09:14.297Z,47.75
2017-12-28T13:11:41.858Z,47.79
2017-12-28T13:14:09.436Z,47.77
2017-12-28T13:16:36.998Z,47.89
2017-12-28T13:19:04.555Z,48.45
2017-12-28T13:21:32.073Z,48.89
2017-12-28T13:23:59.557Z,49.42
2017-12-28T13:26:27.102Z,49.63
2017-12-28T13:28:54.687Z,50.07
2017-12-28T13:31:22.169Z,50.15
2017-12-28T13:33:49.655Z,50.25
2017-12-28T13:36:17.240Z,50.26
2017-12-28T13:38:44.725Z,50.50
2017-12-28T13:41:12.205Z,50.61
2017-12-28T13:43:39.719Z,50.78
2017-12-28T13:46:07.270Z,50.73
2017-12-28T13:48:34.821Z,50.73
2017-12-28T13:51:02.342Z,50.78
2017-12-28T13:53:29.821Z,50.76
2017-12-28T13:55:57.306Z,50.79
2017-12-28T13:58:24.831Z,50.90
2017-12-28T14:00:52.313Z,50.71
2017-12-28T14:03:19.863Z,50.84
2017-12-28T14:05:47.454Z,50.82
2017-12-28T14:08:15.011Z,51.03
2017-12-28T14:10:42.567Z,50.73
2017-12-28T14:13:10.118Z,50.75
2017-12-28T14:15:37.679Z,50.79
2017-12-28T14:18:05.226Z,50.76
2017-12-28T14:20:32.811Z,50.71
2017-12-28T14:23:00.368Z,50.72
2017-12-28T14:25:27.918Z,50.64
2017-12-28T14:27:55.503Z,50.80
2017-12-28T14:30:22.989Z,50.72
2017-12-28T14:32:50.477Z,50.89
2017-12-28T14:35:18.076Z,50.73
2017-12-28T14:37:45.570Z,50.98
2017-12-28T14:40:13.099Z,51.26
2017-12-28T14:42:40.681Z,51.95
2017-12-28T14:45:08.264Z,52.52
2017-12-28T14:47:35.757Z,52.69
2017-12-28T14:50:03.344Z,52.32
2017-12-28T14:52:30.837Z,52.96
2017-12-28T14:54:58.390Z,52.51
2017-12-28T14:57:25.987Z,52.58
2017-12-28T14:59:53.546Z,52.10
2017-12-28T15:02:21.098Z,51.71
2017-12-28T15:04:48.655Z,52.06
2017-12-28T15:07:16.137Z,52.30
2017-12-28T15:09:43.666Z,52.33
2017-12-28T15:12:11.161Z,52.28
2017-12-28T15:14:38.648Z,52.09
2017-12-28T15:17:06.181Z,51.91
2017-12-28T15:19:33.694Z,51.77
2017-12-28T15:22:01.251Z,52.05
2017-12-28T15:24:28.849Z,52.11
2017-12-28T15:26:56.353Z,52.24
2017-12-28T15:29:23.841Z,52.17
2017-12-28T15:31:51.369Z,52.05
2017-12-28T15:34:18.923Z,52.07
2017-12-28T15:36:46.497Z,52.17
2017-12-28T15:39:14.087Z,52.20
2017-12-28T15:41:41.650Z,52.21
2017-12-28T15:44:09.220Z,52.51
2017-12-28T15:46:36.799Z,52.48
2017-12-28T15:49:04.294Z,52.85
2017-12-28T15:51:31.855Z,53.19
2017-12-28T15:53:59.414Z,52.77
2017-12-28T15:56:26.966Z,52.18
2017-12-28T15:58:54.453Z,51.45
2017-12-28T16:01:22.030Z,51.14
2017-12-28T16:03:49.513Z,50.78
2017-12-28T16:06:17.002Z,50.71
2017-12-28T16:08:44.578Z,50.65
2017-12-28T16:11:12.129Z,50.84
2017-12-28T16:13:39.691Z,51.25
2017-12-28T16:16:07.202Z,51.30
2017-12-28T16:18:34.759Z,50.88
2017-12-28T16:21:02.244Z,51.67
2017-12-28T16:23:29.773Z,51.15
2017-12-28T16:25:57.338Z,51.98
2017-12-28T16:28:24.822Z,51.89
2017-12-28T16:30:52.337Z,52.66
2017-12-28T16:33:19.817Z,52.56
2017-12-28T16:35:47.384Z,53.58
2017-12-28T16:38:14.967Z,53.95
2017-12-28T16:40:42.523Z,54.51
2017-12-28T16:43:10.074Z,54.70
2017-12-28T16:45:37.605Z,54.98
2017-12-28T16:48:05.098Z,54.60
2017-12-28T16:50:32.650Z,54.60
2017-12-28T16:53:00.161Z,54.46
2017-12-28T16:55:28.831Z,55.15
2017-12-28T16:57:56.389Z,54.80
2017-12-28T17:00:23.982Z,54.88
2017-12-28T17:02:51.474Z,54.49
2017-12-28T17:05:18.957Z,54.46
2017-12-28T17:07:46.564Z,54.58
2017-12-28T17:10:14.123Z,54.07
2017-12-28T17:12:41.608Z,53.45
2017-12-28T17:15:09.190Z,53.40
2017-12-28T17:17:36.673Z,52.77
2017-12-28T17:20:04.186Z,52.85
2017-12-28T17:22:31.706Z,52.54
2017-12-28T17:24:59.211Z,52.74
2017-12-28T17:27:26.767Z,51.55
2017-12-28T17:29:54.377Z,51.24
2017-12-28T17:32:21.953Z,50.79
2017-12-28T17:34:49.453Z,50.32
2017-12-28T17:37:17.049Z,49.94
2017-12-28T17:39:44.542Z,49.45
2017-12-28T17:42:12.092Z,48.37
2017-12-28T17:44:39.691Z,48.37
2017-12-28T17:47:07.212Z,47.76
2017-12-28T17:49:34.693Z,47.82
2017-12-28T17:52:02.291Z,47.31
2017-12-28T17:54:29.773Z,47.38
2017-12-28T17:56:57.326Z,47.09
2017-12-28T17:59:24.915Z,46.64
2017-12-28T18:01:52.405Z,46.51
2017-12-28T18:04:19.906Z,46.56
2017-12-28T18:06:47.495Z,46.74
2017-12-28T18:09:15.065Z,46.60
2017-12-28T18:11:42.615Z,46.95
2017-12-28T18:14:10.133Z,46.72
2017-12-28T18:16:37.625Z,46.93
2017-12-28T18:19:05.174Z,46.64
2017-12-28T18:21:32.754Z,46.52
2017-12-28T18:24:00.311Z,46.21
2017-12-28T18:26:27.875Z,45.98
2017-12-28T18:28:55.392Z,46.05
2017-12-28T18:31:22.943Z,45.99
2017-12-28T18:33:50.432Z,44.75
2017-12-28T18:36:18.035Z,41.66
2017-12-28T18:38:45.521Z,40.79
2017-12-28T18:41:13.010Z,40.48
2017-12-28T18:43:40.615Z,41.51
2017-12-28T18:46:08.110Z,42.52
2017-12-28T18:48:35.666Z,43.41
2017-12-28T18:51:03.182Z,43.83
2017-12-28T18:53:30.754Z,44.37
2017-12-28T18:55:58.248Z,45.37
2017-12-28T18:58:25.770Z,45.72
2017-12-28T19:00:53.330Z,46.67
2017-12-28T19:03:20.937Z,46.54
2017-12-28T19:05:48.450Z,46.48
2017-12-28T19:08:15.935Z,47.06
2017-12-28T19:10:43.484Z,46.94
2017-12-28T19:13:11.074Z,47.24
2017-12-28T19:15:38.626Z,47.89
2017-12-28T19:18:06.113Z,48.16
2017-12-28T19:20:33.630Z,48.02
2017-12-28T19:23:01.133Z,48.37
2017-12-28T19:25:28.687Z,49.37
2017-12-28T19:27:56.234Z,50.00
2017-12-28T19:30:23.784Z,51.20
2017-12-28T19:32:51.340Z,51.03
2017-12-28T19:35:18.927Z,51.04
2017-12-28T19:37:46.417Z,50.99
2017-12-28T19:40:13.976Z,50.73
2017-12-28T19:42:41.569Z,50.73
2017-12-28T19:45:09.132Z,50.54
2017-12-28T19:47:36.616Z,50.61
2017-12-28T19:50:04.224Z,50.72
2017-12-28T19:52:31.709Z,50.96
2017-12-28T19:54:59.196Z,50.94
2017-12-28T19:57:26.718Z,51.20
2017-12-28T19:59:54.275Z,50.90
2017-12-28T20:02:21.765Z,51.05
2017-12-28T20:04:49.327Z,50.74
2017-12-28T20:07:16.887Z,50.34
2017-12-28T20:09:44.474Z,49.94
2017-12-28T20:12:11.965Z,49.72
2017-12-28T20:14:39.527Z,49.95
2017-12-28T20:17:07.115Z,49.95
2017-12-28T20:19:34.666Z,50.12
2017-12-28T20:22:02.219Z,50.27
2017-12-28T20:24:29.742Z,49.88
2017-12-28T20:26:57.294Z,49.82
2017-12-28T20:29:24.867Z,49.65
2017-12-28T20:31:52.381Z,49.76
2017-12-28T20:34:19.868Z,49.60
2017-12-28T20:36:47.359Z,49.49
2017-12-28T20:39:14.869Z,49.53
2017-12-28T20:41:42.352Z,49.41
2017-12-28T20:44:09.921Z,49.67
2017-12-28T20:46:37.519Z,49.62
2017-12-28T20:49:05.148Z,49.42
2017-12-28T20:51:32.740Z,49.54
2017-12-28T20:54:00.256Z,49.47
2017-12-28T20:56:27.744Z,49.54
2017-12-28T20:58:55.291Z,49.42
2017-12-28T21:01:22.874Z,49.51
2017-12-28T21:03:50.358Z,49.43
2017-12-28T21:06:17.851Z,49.37
2017-12-28T21:08:45.372Z,49.49
2017-12-28T21:11:12.929Z,49.33
2017-12-28T21:13:40.418Z,48.96
2017-12-28T21:16:07.933Z,49.19
2017-12-28T21:18:35.483Z,49.12
2017-12-28T21:21:03.106Z,49.21
2017-12-28T21:23:30.691Z,49.11
2017-12-28T21:25:59.260Z,49.04
2017-12-28T21:28:26.810Z,49.00
2017-12-28T21:30:54.329Z,49.22
2017-12-28T21:33:21.884Z,48.95
2017-12-28T21:35:49.366Z,48.82
2017-12-28T21:38:16.943Z,49.00
2017-12-28T21:40:44.425Z,49.00
2017-12-28T21:43:11.974Z,49.07
2017-12-28T21:45:39.485Z,48.92
2017-12-28T21:48:07.034Z,48.88
2017-12-28T21:50:34.517Z,48.72
2017-12-28T21:53:02.041Z,48.70
2017-12-28T21:55:29.531Z,48.69
2017-12-28T21:57:57.014Z,48.66
2017-12-28T22:00:24.532Z,48.71
2017-12-28T22:02:52.082Z,48.60
2017-12-28T22:05:19.631Z,48.66
2017-12-28T22:07:48.286Z,48.52
2017-12-28T22:10:15.839Z,48.41
2017-12-28T22:12:43.321Z,48.28
2017-12-28T22:15:10.829Z,48.19
2017-12-28T22:17:38.376Z,48.24
2017-12-28T22:20:05.926Z,48.17
2017-12-28T22:22:33.437Z,48.11
2017-12-28T22:25:00.992Z,47.95
2017-12-28T22:27:29.527Z,47.92
2017-12-28T22:29:57.046Z,47.79
2017-12-28T22:32:24.599Z,47.78
2017-12-28T22:34:52.073Z,47.84
2017-12-28T22:37:19.582Z,47.69
2017-12-28T22:39:47.132Z,47.78
2017-12-28T22:42:14.691Z,47.65
2017-12-28T22:44:42.266Z,47.57
2017-12-28T22:47:09.753Z,47.39
2017-12-28T22:49:37.229Z,47.36
2017-12-28T22:52:04.807Z,47.25
2017-12-28T22:54:32.290Z,47.24
2017-12-28T22:56:59.840Z,47.29
2017-12-28T22:59:27.361Z,47.15
2017-12-28T23:01:54.902Z,47.25
2017-12-28T23:04:22.378Z,47.15
2017-12-28T23:06:49.950Z,47.13
2017-12-28T23:09:17.499Z,47.09
2017-12-28T23:11:45.046Z,47.06
2017-12-28T23:14:12.557Z,46.99
2017-12-28T23:16:40.037Z,47.03
2017-12-28T23:19:07.585Z,47.00
2017-12-28T23:21:35.167Z,46.99
2017-12-28T23:24:02.642Z,46.92
2017-12-28T23:26:30.125Z,46.90
2017-12-28T23:28:57.641Z,46.81
2017-12-28T23:31:25.117Z,46.86
2017-12-28T23:33:52.606Z,46.93
2017-12-28T23:36:20.179Z,46.85
2017-12-28T23:38:47.657Z,46.94
2017-12-28T23:41:15.135Z,46.82
2017-12-28T23:43:42.715Z,46.75
2017-12-28T23:46:10.194Z,46.74
2017-12-28T23:48:37.738Z,46.67
2017-12-28T23:51:05.319Z,46.70
2017-12-28T23:53:32.861Z,46.72
2017-12-28T23:56:00.407Z,46.54
2017-12-28T23:58:27.984Z,46.66
